sensor_id;sensor_type;location;lat;lon;timestamp;temperature;humidity
5457;DHT22;2751;49.802;9.944;2023-05-25T00:00:18;10.20;93.00
5457;DHT22;2751;49.802;9.944;2023-05-25T00:02:45;10.10;93.70
5457;DHT22;2751;49.802;9.944;2023-05-25T00:05:12;10.10;94.50
5457;DHT22;2751;49.802;9.944;2023-05-25T00:07:39;10.00;95.10
5457;DHT22;2751;49.802;9.944;2023-05-25T00:10:08;10.00;95.70
5457;DHT22;2751;49.802;9.944;2023-05-25T00:12:35;10.00;96.30
5457;DHT22;2751;49.802;9.944;2023-05-25T00:15:04;9.90;97.70
5457;DHT22;2751;49.802;9.944;2023-05-25T00:17:31;9.90;98.40
5457;DHT22;2751;49.802;9.944;2023-05-25T00:19:58;9.90;98.40
5457;DHT22;2751;49.802;9.944;2023-05-25T00:22:33;9.80;99.00
5457;DHT22;2751;49.802;9.944;2023-05-25T00:25:00;9.80;99.60
5457;DHT22;2751;49.802;9.944;2023-05-25T00:27:27;9.90;99.90
5457;DHT22;2751;49.802;9.944;2023-05-25T00:29:54;10.20;99.90
5457;DHT22;2751;49.802;9.944;2023-05-25T00:32:22;9.80;99.90
5457;DHT22;2751;49.802;9.944;2023-05-25T00:34:49;9.70;99.90
5457;DHT22;2751;49.802;9.944;2023-05-25T00:37:16;9.70;99.90
5457;DHT22;2751;49.802;9.944;2023-05-25T00:39:43;9.70;99.90
5457;DHT22;2751;49.802;9.944;2023-05-25T00:42:10;9.60;99.90
5457;DHT22;2751;49.802;9.944;2023-05-25T00:44:37;9.60;99.90
5457;DHT22;2751;49.802;9.944;2023-05-25T00:47:04;9.60;99.90
5457;DHT22;2751;49.802;9.944;2023-05-25T00:49:34;9.60;99.90
5457;DHT22;2751;49.802;9.944;2023-05-25T00:52:01;9.60;99.90
5457;DHT22;2751;49.802;9.944;2023-05-25T00:54:28;9.50;99.90
5457;DHT22;2751;49.802;9.944;2023-05-25T00:57:00;9.50;99.90
5457;DHT22;2751;49.802;9.944;2023-05-25T00:59:32;9.50;99.90
5457;DHT22;2751;49.802;9.944;2023-05-25T01:02:02;9.50;99.90
5457;DHT22;2751;49.802;9.944;2023-05-25T01:04:33;9.50;99.90
5457;DHT22;2751;49.802;9.944;2023-05-25T01:07:04;9.50;99.90
5457;DHT22;2751;49.802;9.944;2023-05-25T01:09:33;9.50;99.90
5457;DHT22;2751;49.802;9.944;2023-05-25T01:12:02;9.50;99.90
5457;DHT22;2751;49.802;9.944;2023-05-25T01:14:30;9.50;99.90
5457;DHT22;2751;49.802;9.944;2023-05-25T01:16:57;9.50;99.90
5457;DHT22;2751;49.802;9.944;2023-05-25T01:19:25;9.50;99.90
5457;DHT22;2751;49.802;9.944;2023-05-25T01:22:00;9.50;99.90
5457;DHT22;2751;49.802;9.944;2023-05-25T01:24:32;9.40;99.90
5457;DHT22;2751;49.802;9.944;2023-05-25T01:27:05;9.30;99.90
5457;DHT22;2751;49.802;9.944;2023-05-25T01:29:34;9.30;99.90
5457;DHT22;2751;49.802;9.944;2023-05-25T01:32:01;9.20;99.90
5457;DHT22;2751;49.802;9.944;2023-05-25T01:34:30;9.20;99.90
5457;DHT22;2751;49.802;9.944;2023-05-25T01:36:58;9.20;99.90
5457;DHT22;2751;49.802;9.944;2023-05-25T01:39:25;9.40;99.90
5457;DHT22;2751;49.802;9.944;2023-05-25T01:41:52;9.00;99.90
5457;DHT22;2751;49.802;9.944;2023-05-25T01:44:19;9.00;99.90
5457;DHT22;2751;49.802;9.944;2023-05-25T01:46:49;9.20;99.90
5457;DHT22;2751;49.802;9.944;2023-05-25T01:49:26;8.80;99.90
5457;DHT22;2751;49.802;9.944;2023-05-25T01:52:02;8.70;99.90
5457;DHT22;2751;49.802;9.944;2023-05-25T01:54:38;8.60;99.90
5457;DHT22;2751;49.802;9.944;2023-05-25T01:57:09;8.60;99.90
5457;DHT22;2751;49.802;9.944;2023-05-25T01:59:41;8.50;99.90
5457;DHT22;2751;49.802;9.944;2023-05-25T02:02:09;8.40;99.90
5457;DHT22;2751;49.802;9.944;2023-05-25T02:04:36;8.40;99.90
5457;DHT22;2751;49.802;9.944;2023-05-25T02:07:05;8.30;99.90
5457;DHT22;2751;49.802;9.944;2023-05-25T02:09:32;8.20;99.90
5457;DHT22;2751;49.802;9.944;2023-05-25T02:11:59;8.30;99.90
5457;DHT22;2751;49.802;9.944;2023-05-25T02:14:27;8.30;99.90
5457;DHT22;2751;49.802;9.944;2023-05-25T02:16:53;8.20;99.90
5457;DHT22;2751;49.802;9.944;2023-05-25T02:19:22;8.20;99.90
5457;DHT22;2751;49.802;9.944;2023-05-25T02:21:49;8.20;99.90
5457;DHT22;2751;49.802;9.944;2023-05-25T02:24:17;8.20;1.00
5457;DHT22;2751;49.802;9.944;2023-05-25T02:26:44;8.20;1.00
5457;DHT22;2751;49.802;9.944;2023-05-25T02:29:10;8.20;1.00
5457;DHT22;2751;49.802;9.944;2023-05-25T02:31:37;8.20;1.00
5457;DHT22;2751;49.802;9.944;2023-05-25T02:34:04;8.20;14.60
5457;DHT22;2751;49.802;9.944;2023-05-25T02:36:31;8.20;1.00
5457;DHT22;2751;49.802;9.944;2023-05-25T02:39:00;8.30;51.80
5457;DHT22;2751;49.802;9.944;2023-05-25T02:41:28;8.20;99.90
5457;DHT22;2751;49.802;9.944;2023-05-25T02:43:55;8.20;99.90
5457;DHT22;2751;49.802;9.944;2023-05-25T02:46:22;8.20;99.90
5457;DHT22;2751;49.802;9.944;2023-05-25T02:48:49;8.30;99.90
5457;DHT22;2751;49.802;9.944;2023-05-25T02:51:16;8.30;99.90
5457;DHT22;2751;49.802;9.944;2023-05-25T02:53:43;8.30;99.90
5457;DHT22;2751;49.802;9.944;2023-05-25T02:56:10;8.40;99.90
5457;DHT22;2751;49.802;9.944;2023-05-25T02:58:38;8.20;99.90
5457;DHT22;2751;49.802;9.944;2023-05-25T03:01:05;8.20;99.90
5457;DHT22;2751;49.802;9.944;2023-05-25T03:03:35;8.20;99.90
5457;DHT22;2751;49.802;9.944;2023-05-25T03:06:02;8.10;99.90
5457;DHT22;2751;49.802;9.944;2023-05-25T03:08:29;8.10;99.90
5457;DHT22;2751;49.802;9.944;2023-05-25T03:10:56;8.10;99.90
5457;DHT22;2751;49.802;9.944;2023-05-25T03:13:23;8.10;99.90
5457;DHT22;2751;49.802;9.944;2023-05-25T03:15:52;8.50;99.90
5457;DHT22;2751;49.802;9.944;2023-05-25T03:18:18;8.10;99.90
5457;DHT22;2751;49.802;9.944;2023-05-25T03:20:45;8.50;99.90
5457;DHT22;2751;49.802;9.944;2023-05-25T03:23:12;8.10;99.90
5457;DHT22;2751;49.802;9.944;2023-05-25T03:25:39;8.10;99.90
5457;DHT22;2751;49.802;9.944;2023-05-25T03:28:06;8.10;99.90
5457;DHT22;2751;49.802;9.944;2023-05-25T03:30:33;8.10;99.90
5457;DHT22;2751;49.802;9.944;2023-05-25T03:33:01;8.10;99.90
5457;DHT22;2751;49.802;9.944;2023-05-25T03:35:28;8.10;99.90
5457;DHT22;2751;49.802;9.944;2023-05-25T03:37:55;8.10;99.90
5457;DHT22;2751;49.802;9.944;2023-05-25T03:40:22;8.10;99.90
5457;DHT22;2751;49.802;9.944;2023-05-25T03:42:49;8.00;99.90
5457;DHT22;2751;49.802;9.944;2023-05-25T03:45:16;8.00;99.90
5457;DHT22;2751;49.802;9.944;2023-05-25T03:47:42;8.00;99.90
5457;DHT22;2751;49.802;9.944;2023-05-25T03:50:12;8.10;99.90
5457;DHT22;2751;49.802;9.944;2023-05-25T03:52:39;8.10;99.90
5457;DHT22;2751;49.802;9.944;2023-05-25T03:55:06;8.10;99.90
5457;DHT22;2751;49.802;9.944;2023-05-25T03:57:33;8.10;99.90
5457;DHT22;2751;49.802;9.944;2023-05-25T04:00:00;8.10;99.90
5457;DHT22;2751;49.802;9.944;2023-05-25T04:02:26;8.10;99.90
5457;DHT22;2751;49.802;9.944;2023-05-25T04:04:53;8.10;99.90
5457;DHT22;2751;49.802;9.944;2023-05-25T04:07:22;8.10;99.90
5457;DHT22;2751;49.802;9.944;2023-05-25T04:09:51;8.10;99.90
5457;DHT22;2751;49.802;9.944;2023-05-25T04:12:18;8.10;99.90
5457;DHT22;2751;49.802;9.944;2023-05-25T04:14:45;8.10;99.90
5457;DHT22;2751;49.802;9.944;2023-05-25T04:17:12;8.10;99.90
5457;DHT22;2751;49.802;9.944;2023-05-25T04:19:39;8.00;99.90
5457;DHT22;2751;49.802;9.944;2023-05-25T04:22:06;8.10;99.90
5457;DHT22;2751;49.802;9.944;2023-05-25T04:24:34;8.10;99.90
5457;DHT22;2751;49.802;9.944;2023-05-25T04:27:01;8.20;99.90
5457;DHT22;2751;49.802;9.944;2023-05-25T04:29:28;8.20;99.90
5457;DHT22;2751;49.802;9.944;2023-05-25T04:31:56;8.40;99.90
5457;DHT22;2751;49.802;9.944;2023-05-25T04:34:23;8.30;99.90
5457;DHT22;2751;49.802;9.944;2023-05-25T04:36:50;8.50;99.90
5457;DHT22;2751;49.802;9.944;2023-05-25T04:39:18;8.40;99.90
5457;DHT22;2751;49.802;9.944;2023-05-25T04:41:46;8.50;99.90
5457;DHT22;2751;49.802;9.944;2023-05-25T04:44:13;8.50;99.90
5457;DHT22;2751;49.802;9.944;2023-05-25T04:46:40;8.60;99.90
5457;DHT22;2751;49.802;9.944;2023-05-25T04:49:09;8.60;99.90
5457;DHT22;2751;49.802;9.944;2023-05-25T04:51:37;8.60;99.90
5457;DHT22;2751;49.802;9.944;2023-05-25T04:54:04;8.70;99.90
5457;DHT22;2751;49.802;9.944;2023-05-25T04:56:31;8.70;99.90
5457;DHT22;2751;49.802;9.944;2023-05-25T04:58:59;8.80;99.90
5457;DHT22;2751;49.802;9.944;2023-05-25T05:01:26;8.90;99.90
5457;DHT22;2751;49.802;9.944;2023-05-25T05:03:53;8.90;99.90
5457;DHT22;2751;49.802;9.944;2023-05-25T05:06:21;9.00;99.90
5457;DHT22;2751;49.802;9.944;2023-05-25T05:08:50;9.50;99.90
5457;DHT22;2751;49.802;9.944;2023-05-25T05:11:17;9.20;99.90
5457;DHT22;2751;49.802;9.944;2023-05-25T05:13:43;9.30;99.90
5457;DHT22;2751;49.802;9.944;2023-05-25T05:16:12;9.40;99.90
5457;DHT22;2751;49.802;9.944;2023-05-25T05:18:38;9.50;99.90
5457;DHT22;2751;49.802;9.944;2023-05-25T05:21:05;9.60;99.90
5457;DHT22;2751;49.802;9.944;2023-05-25T05:23:32;10.00;99.90
5457;DHT22;2751;49.802;9.944;2023-05-25T05:25:59;9.80;99.90
5457;DHT22;2751;49.802;9.944;2023-05-25T05:28:26;9.90;99.90
5457;DHT22;2751;49.802;9.944;2023-05-25T05:30:54;10.00;99.90
5457;DHT22;2751;49.802;9.944;2023-05-25T05:33:23;10.20;99.90
5457;DHT22;2751;49.802;9.944;2023-05-25T05:35:50;10.40;99.90
5457;DHT22;2751;49.802;9.944;2023-05-25T05:38:17;10.60;99.90
5457;DHT22;2751;49.802;9.944;2023-05-25T05:40:44;10.90;99.90
5457;DHT22;2751;49.802;9.944;2023-05-25T05:43:12;11.10;99.90
5457;DHT22;2751;49.802;9.944;2023-05-25T05:45:39;11.20;99.90
5457;DHT22;2751;49.802;9.944;2023-05-25T05:48:06;11.40;99.90
5457;DHT22;2751;49.802;9.944;2023-05-25T05:50:36;11.50;99.90
5457;DHT22;2751;49.802;9.944;2023-05-25T05:53:03;11.60;99.90
5457;DHT22;2751;49.802;9.944;2023-05-25T05:55:30;11.80;99.90
5457;DHT22;2751;49.802;9.944;2023-05-25T05:57:57;12.10;99.90
5457;DHT22;2751;49.802;9.944;2023-05-25T06:00:24;12.20;99.90
5457;DHT22;2751;49.802;9.944;2023-05-25T06:02:51;12.00;99.90
5457;DHT22;2751;49.802;9.944;2023-05-25T06:05:18;12.10;99.90
5457;DHT22;2751;49.802;9.944;2023-05-25T06:07:47;12.10;99.90
5457;DHT22;2751;49.802;9.944;2023-05-25T06:10:14;12.20;99.90
5457;DHT22;2751;49.802;9.944;2023-05-25T06:12:41;12.20;99.90
5457;DHT22;2751;49.802;9.944;2023-05-25T06:15:08;12.30;99.90
5457;DHT22;2751;49.802;9.944;2023-05-25T06:17:35;12.40;99.90
5457;DHT22;2751;49.802;9.944;2023-05-25T06:20:02;12.50;99.90
5457;DHT22;2751;49.802;9.944;2023-05-25T06:22:30;12.60;99.90
5457;DHT22;2751;49.802;9.944;2023-05-25T06:24:59;12.70;99.90
5457;DHT22;2751;49.802;9.944;2023-05-25T06:27:26;12.70;99.90
5457;DHT22;2751;49.802;9.944;2023-05-25T06:29:53;12.80;99.90
5457;DHT22;2751;49.802;9.944;2023-05-25T06:32:20;12.90;99.90
5457;DHT22;2751;49.802;9.944;2023-05-25T06:34:47;13.00;99.90
5457;DHT22;2751;49.802;9.944;2023-05-25T06:37:14;13.10;99.90
5457;DHT22;2751;49.802;9.944;2023-05-25T06:39:41;13.30;99.90
5457;DHT22;2751;49.802;9.944;2023-05-25T06:42:10;13.40;99.90
5457;DHT22;2751;49.802;9.944;2023-05-25T06:44:37;13.50;99.90
5457;DHT22;2751;49.802;9.944;2023-05-25T06:47:04;13.60;99.90
5457;DHT22;2751;49.802;9.944;2023-05-25T06:49:31;13.70;99.90
5457;DHT22;2751;49.802;9.944;2023-05-25T06:51:58;13.90;99.90
5457;DHT22;2751;49.802;9.944;2023-05-25T06:54:25;14.00;99.90
5457;DHT22;2751;49.802;9.944;2023-05-25T06:56:52;14.10;99.90
5457;DHT22;2751;49.802;9.944;2023-05-25T06:59:20;14.10;99.90
5457;DHT22;2751;49.802;9.944;2023-05-25T07:01:47;14.10;99.90
5457;DHT22;2751;49.802;9.944;2023-05-25T07:04:14;14.20;99.90
5457;DHT22;2751;49.802;9.944;2023-05-25T07:06:41;14.30;99.90
5457;DHT22;2751;49.802;9.944;2023-05-25T07:09:08;14.30;99.90
5457;DHT22;2751;49.802;9.944;2023-05-25T07:11:35;14.40;99.90
5457;DHT22;2751;49.802;9.944;2023-05-25T07:14:02;14.50;99.90
5457;DHT22;2751;49.802;9.944;2023-05-25T07:16:30;14.60;99.90
5457;DHT22;2751;49.802;9.944;2023-05-25T07:18:57;14.60;99.90
5457;DHT22;2751;49.802;9.944;2023-05-25T07:21:24;14.70;99.90
5457;DHT22;2751;49.802;9.944;2023-05-25T07:23:51;14.80;99.90
5457;DHT22;2751;49.802;9.944;2023-05-25T07:26:18;14.70;99.90
5457;DHT22;2751;49.802;9.944;2023-05-25T07:28:47;14.70;99.90
5457;DHT22;2751;49.802;9.944;2023-05-25T07:31:14;14.80;99.90
5457;DHT22;2751;49.802;9.944;2023-05-25T07:33:43;14.90;99.90
5457;DHT22;2751;49.802;9.944;2023-05-25T07:36:10;15.00;99.90
5457;DHT22;2751;49.802;9.944;2023-05-25T07:38:37;15.10;99.90
5457;DHT22;2751;49.802;9.944;2023-05-25T07:41:04;15.20;99.90
5457;DHT22;2751;49.802;9.944;2023-05-25T07:43:31;15.20;99.90
5457;DHT22;2751;49.802;9.944;2023-05-25T07:45:59;15.20;99.90
5457;DHT22;2751;49.802;9.944;2023-05-25T07:48:26;15.30;99.90
5457;DHT22;2751;49.802;9.944;2023-05-25T07:50:55;15.40;99.90
5457;DHT22;2751;49.802;9.944;2023-05-25T07:53:21;15.50;99.90
5457;DHT22;2751;49.802;9.944;2023-05-25T07:55:48;15.50;99.90
5457;DHT22;2751;49.802;9.944;2023-05-25T07:58:15;15.70;99.90
5457;DHT22;2751;49.802;9.944;2023-05-25T08:00:42;15.80;99.90
5457;DHT22;2751;49.802;9.944;2023-05-25T08:03:09;16.00;99.90
5457;DHT22;2751;49.802;9.944;2023-05-25T08:05:36;16.10;99.90
5457;DHT22;2751;49.802;9.944;2023-05-25T08:08:05;16.20;99.90
5457;DHT22;2751;49.802;9.944;2023-05-25T08:10:32;16.30;99.90
5457;DHT22;2751;49.802;9.944;2023-05-25T08:12:59;16.40;99.90
5457;DHT22;2751;49.802;9.944;2023-05-25T08:15:29;16.50;99.90
5457;DHT22;2751;49.802;9.944;2023-05-25T08:17:55;16.60;99.90
5457;DHT22;2751;49.802;9.944;2023-05-25T08:20:22;16.70;99.90
5457;DHT22;2751;49.802;9.944;2023-05-25T08:22:50;16.80;99.90
5457;DHT22;2751;49.802;9.944;2023-05-25T08:25:21;16.80;99.90
5457;DHT22;2751;49.802;9.944;2023-05-25T08:27:48;16.80;99.90
5457;DHT22;2751;49.802;9.944;2023-05-25T08:30:15;16.90;99.50
5457;DHT22;2751;49.802;9.944;2023-05-25T08:32:42;17.50;98.80
5457;DHT22;2751;49.802;9.944;2023-05-25T08:35:09;18.60;96.40
5457;DHT22;2751;49.802;9.944;2023-05-25T08:37:38;19.30;94.90
5457;DHT22;2751;49.802;9.944;2023-05-25T08:40:07;19.90;92.60
5457;DHT22;2751;49.802;9.944;2023-05-25T08:42:42;20.50;1.00
5457;DHT22;2751;49.802;9.944;2023-05-25T08:45:09;21.30;1.00
5457;DHT22;2751;49.802;9.944;2023-05-25T08:47:40;22.00;1.00
5457;DHT22;2751;49.802;9.944;2023-05-25T08:50:08;22.50;1.00
5457;DHT22;2751;49.802;9.944;2023-05-25T08:52:38;22.70;1.00
5457;DHT22;2751;49.802;9.944;2023-05-25T08:55:07;22.90;1.00
5457;DHT22;2751;49.802;9.944;2023-05-25T08:57:40;23.70;1.00
5457;DHT22;2751;49.802;9.944;2023-05-25T09:00:13;24.20;1.00
5457;DHT22;2751;49.802;9.944;2023-05-25T09:02:44;24.50;1.00
5457;DHT22;2751;49.802;9.944;2023-05-25T09:05:12;25.10;1.00
5457;DHT22;2751;49.802;9.944;2023-05-25T09:07:41;25.30;1.00
5457;DHT22;2751;49.802;9.944;2023-05-25T09:10:10;25.60;1.00
5457;DHT22;2751;49.802;9.944;2023-05-25T09:12:37;25.90;1.00
5457;DHT22;2751;49.802;9.944;2023-05-25T09:15:05;26.40;1.00
5457;DHT22;2751;49.802;9.944;2023-05-25T09:17:33;26.30;1.00
5457;DHT22;2751;49.802;9.944;2023-05-25T09:20:00;26.00;1.00
5457;DHT22;2751;49.802;9.944;2023-05-25T09:22:27;26.30;1.00
5457;DHT22;2751;49.802;9.944;2023-05-25T09:24:54;26.90;1.00
5457;DHT22;2751;49.802;9.944;2023-05-25T09:27:22;26.40;1.00
5457;DHT22;2751;49.802;9.944;2023-05-25T09:29:50;26.60;1.00
5457;DHT22;2751;49.802;9.944;2023-05-25T09:32:17;27.20;1.00
5457;DHT22;2751;49.802;9.944;2023-05-25T09:34:46;27.50;1.00
5457;DHT22;2751;49.802;9.944;2023-05-25T09:37:14;27.70;1.00
5457;DHT22;2751;49.802;9.944;2023-05-25T09:39:43;28.60;1.00
5457;DHT22;2751;49.802;9.944;2023-05-25T09:42:10;28.90;1.00
5457;DHT22;2751;49.802;9.944;2023-05-25T09:44:37;29.40;1.00
5457;DHT22;2751;49.802;9.944;2023-05-25T09:47:05;29.70;1.00
5457;DHT22;2751;49.802;9.944;2023-05-25T09:49:32;29.70;1.00
5457;DHT22;2751;49.802;9.944;2023-05-25T09:52:01;30.10;1.00
5457;DHT22;2751;49.802;9.944;2023-05-25T09:54:28;30.40;1.00
5457;DHT22;2751;49.802;9.944;2023-05-25T09:56:55;29.60;1.00
5457;DHT22;2751;49.802;9.944;2023-05-25T09:59:22;29.30;1.00
5457;DHT22;2751;49.802;9.944;2023-05-25T10:01:50;28.80;1.00
5457;DHT22;2751;49.802;9.944;2023-05-25T10:04:18;29.70;1.00
5457;DHT22;2751;49.802;9.944;2023-05-25T10:06:47;29.70;1.00
5457;DHT22;2751;49.802;9.944;2023-05-25T10:09:17;30.20;1.00
5457;DHT22;2751;49.802;9.944;2023-05-25T10:11:45;30.70;1.00
5457;DHT22;2751;49.802;9.944;2023-05-25T10:14:15;30.30;1.00
5457;DHT22;2751;49.802;9.944;2023-05-25T10:16:47;29.90;1.00
5457;DHT22;2751;49.802;9.944;2023-05-25T10:19:19;30.50;1.00
5457;DHT22;2751;49.802;9.944;2023-05-25T10:21:54;30.60;1.00
5457;DHT22;2751;49.802;9.944;2023-05-25T10:24:33;31.00;1.00
5457;DHT22;2751;49.802;9.944;2023-05-25T10:27:02;31.50;1.00
5457;DHT22;2751;49.802;9.944;2023-05-25T10:29:30;32.10;1.00
5457;DHT22;2751;49.802;9.944;2023-05-25T10:32:00;31.70;1.00
5457;DHT22;2751;49.802;9.944;2023-05-25T10:34:28;31.60;1.00
5457;DHT22;2751;49.802;9.944;2023-05-25T10:36:56;31.70;1.00
5457;DHT22;2751;49.802;9.944;2023-05-25T10:39:25;32.50;1.00
5457;DHT22;2751;49.802;9.944;2023-05-25T10:41:52;33.50;1.00
5457;DHT22;2751;49.802;9.944;2023-05-25T10:44:20;34.10;1.00
5457;DHT22;2751;49.802;9.944;2023-05-25T10:46:47;33.50;1.00
5457;DHT22;2751;49.802;9.944;2023-05-25T10:49:25;33.10;1.00
5457;DHT22;2751;49.802;9.944;2023-05-25T10:51:57;33.90;1.00
5457;DHT22;2751;49.802;9.944;2023-05-25T10:54:28;33.40;1.00
5457;DHT22;2751;49.802;9.944;2023-05-25T10:57:17;34.30;1.00
5457;DHT22;2751;49.802;9.944;2023-05-25T10:59:47;33.80;1.00
5457;DHT22;2751;49.802;9.944;2023-05-25T11:02:15;33.70;1.00
5457;DHT22;2751;49.802;9.944;2023-05-25T11:04:42;34.40;1.00
5457;DHT22;2751;49.802;9.944;2023-05-25T11:07:13;34.70;1.00
5457;DHT22;2751;49.802;9.944;2023-05-25T11:09:44;34.70;1.00
5457;DHT22;2751;49.802;9.944;2023-05-25T11:12:21;34.80;1.00
5457;DHT22;2751;49.802;9.944;2023-05-25T11:15:13;34.90;1.00
5457;DHT22;2751;49.802;9.944;2023-05-25T11:17:56;35.10;1.00
5457;DHT22;2751;49.802;9.944;2023-05-25T11:20:26;34.40;1.00
5457;DHT22;2751;49.802;9.944;2023-05-25T11:22:56;33.60;1.00
5457;DHT22;2751;49.802;9.944;2023-05-25T11:25:38;33.90;1.00
5457;DHT22;2751;49.802;9.944;2023-05-25T11:28:06;33.50;1.00
5457;DHT22;2751;49.802;9.944;2023-05-25T11:30:36;34.00;1.00
5457;DHT22;2751;49.802;9.944;2023-05-25T11:33:03;35.00;1.00
5457;DHT22;2751;49.802;9.944;2023-05-25T11:35:32;35.70;1.00
5457;DHT22;2751;49.802;9.944;2023-05-25T11:38:03;35.50;1.00
5457;DHT22;2751;49.802;9.944;2023-05-25T11:40:31;35.10;1.00
5457;DHT22;2751;49.802;9.944;2023-05-25T11:43:01;34.90;1.00
5457;DHT22;2751;49.802;9.944;2023-05-25T11:45:28;35.00;1.00
5457;DHT22;2751;49.802;9.944;2023-05-25T11:47:56;34.30;1.00
5457;DHT22;2751;49.802;9.944;2023-05-25T11:50:23;35.10;1.00
5457;DHT22;2751;49.802;9.944;2023-05-25T11:52:51;35.20;1.00
5457;DHT22;2751;49.802;9.944;2023-05-25T11:55:18;35.10;1.00
5457;DHT22;2751;49.802;9.944;2023-05-25T11:57:45;36.00;1.00
5457;DHT22;2751;49.802;9.944;2023-05-25T12:00:23;36.60;1.00
5457;DHT22;2751;49.802;9.944;2023-05-25T12:02:50;36.50;1.00
5457;DHT22;2751;49.802;9.944;2023-05-25T12:05:17;36.00;1.00
5457;DHT22;2751;49.802;9.944;2023-05-25T12:07:44;35.20;1.00
5457;DHT22;2751;49.802;9.944;2023-05-25T12:10:13;36.40;1.00
5457;DHT22;2751;49.802;9.944;2023-05-25T12:12:41;36.10;1.00
5457;DHT22;2751;49.802;9.944;2023-05-25T12:15:09;35.10;1.00
5457;DHT22;2751;49.802;9.944;2023-05-25T12:17:40;35.80;1.00
5457;DHT22;2751;49.802;9.944;2023-05-25T12:20:09;35.90;1.00
5457;DHT22;2751;49.802;9.944;2023-05-25T12:22:36;36.10;1.00
5457;DHT22;2751;49.802;9.944;2023-05-25T12:25:05;36.90;1.00
5457;DHT22;2751;49.802;9.944;2023-05-25T12:27:32;37.00;1.00
5457;DHT22;2751;49.802;9.944;2023-05-25T12:29:59;36.30;1.00
5457;DHT22;2751;49.802;9.944;2023-05-25T12:32:26;36.60;1.00
5457;DHT22;2751;49.802;9.944;2023-05-25T12:35:03;37.10;1.00
5457;DHT22;2751;49.802;9.944;2023-05-25T12:37:30;36.50;1.00
5457;DHT22;2751;49.802;9.944;2023-05-25T12:39:57;37.70;1.00
5457;DHT22;2751;49.802;9.944;2023-05-25T12:42:24;38.40;1.00
5457;DHT22;2751;49.802;9.944;2023-05-25T12:44:55;38.30;1.00
5457;DHT22;2751;49.802;9.944;2023-05-25T12:47:25;37.90;1.00
5457;DHT22;2751;49.802;9.944;2023-05-25T12:50:11;37.60;1.00
5457;DHT22;2751;49.802;9.944;2023-05-25T12:52:40;37.50;1.00
5457;DHT22;2751;49.802;9.944;2023-05-25T12:55:18;36.80;1.00
5457;DHT22;2751;49.802;9.944;2023-05-25T12:57:45;36.40;1.00
5457;DHT22;2751;49.802;9.944;2023-05-25T13:00:17;37.00;1.00
5457;DHT22;2751;49.802;9.944;2023-05-25T13:02:44;37.20;1.00
5457;DHT22;2751;49.802;9.944;2023-05-25T13:05:20;38.20;1.00
5457;DHT22;2751;49.802;9.944;2023-05-25T13:07:47;36.90;1.00
5457;DHT22;2751;49.802;9.944;2023-05-25T13:10:15;36.20;1.00
5457;DHT22;2751;49.802;9.944;2023-05-25T13:12:44;35.60;1.00
5457;DHT22;2751;49.802;9.944;2023-05-25T13:15:11;36.40;1.00
5457;DHT22;2751;49.802;9.944;2023-05-25T13:17:40;36.90;1.00
5457;DHT22;2751;49.802;9.944;2023-05-25T13:20:10;37.50;1.00
5457;DHT22;2751;49.802;9.944;2023-05-25T13:22:38;37.60;1.00
5457;DHT22;2751;49.802;9.944;2023-05-25T13:25:06;37.30;1.00
5457;DHT22;2751;49.802;9.944;2023-05-25T13:27:33;37.50;1.00
5457;DHT22;2751;49.802;9.944;2023-05-25T13:30:02;37.80;1.00
5457;DHT22;2751;49.802;9.944;2023-05-25T13:32:29;39.00;1.00
5457;DHT22;2751;49.802;9.944;2023-05-25T13:34:56;38.40;1.00
5457;DHT22;2751;49.802;9.944;2023-05-25T13:37:24;38.60;1.00
5457;DHT22;2751;49.802;9.944;2023-05-25T13:39:53;38.90;1.00
5457;DHT22;2751;49.802;9.944;2023-05-25T13:42:20;39.40;1.00
5457;DHT22;2751;49.802;9.944;2023-05-25T13:44:47;39.00;1.00
5457;DHT22;2751;49.802;9.944;2023-05-25T13:47:14;37.40;1.00
5457;DHT22;2751;49.802;9.944;2023-05-25T13:49:41;37.50;1.00
5457;DHT22;2751;49.802;9.944;2023-05-25T13:52:08;37.20;1.00
5457;DHT22;2751;49.802;9.944;2023-05-25T13:54:35;37.50;1.00
5457;DHT22;2751;49.802;9.944;2023-05-25T13:57:03;37.60;1.00
5457;DHT22;2751;49.802;9.944;2023-05-25T13:59:31;37.60;1.00
5457;DHT22;2751;49.802;9.944;2023-05-25T14:01:58;37.90;1.00
5457;DHT22;2751;49.802;9.944;2023-05-25T14:04:27;38.40;1.00
5457;DHT22;2751;49.802;9.944;2023-05-25T14:06:54;38.10;1.00
5457;DHT22;2751;49.802;9.944;2023-05-25T14:09:21;38.00;1.00
5457;DHT22;2751;49.802;9.944;2023-05-25T14:11:48;37.00;1.00
5457;DHT22;2751;49.802;9.944;2023-05-25T14:14:18;36.10;1.00
5457;DHT22;2751;49.802;9.944;2023-05-25T14:16:45;36.70;1.00
5457;DHT22;2751;49.802;9.944;2023-05-25T14:19:12;37.50;1.00
5457;DHT22;2751;49.802;9.944;2023-05-25T14:21:41;37.10;1.00
5457;DHT22;2751;49.802;9.944;2023-05-25T14:24:08;36.60;1.00
5457;DHT22;2751;49.802;9.944;2023-05-25T14:26:36;36.80;1.00
5457;DHT22;2751;49.802;9.944;2023-05-25T14:29:02;37.00;1.00
5457;DHT22;2751;49.802;9.944;2023-05-25T14:31:31;37.70;1.00
5457;DHT22;2751;49.802;9.944;2023-05-25T14:33:58;38.30;1.00
5457;DHT22;2751;49.802;9.944;2023-05-25T14:36:24;38.50;1.00
5457;DHT22;2751;49.802;9.944;2023-05-25T14:38:52;38.40;1.00
5457;DHT22;2751;49.802;9.944;2023-05-25T14:41:18;38.80;1.00
5457;DHT22;2751;49.802;9.944;2023-05-25T14:43:47;38.10;1.00
5457;DHT22;2751;49.802;9.944;2023-05-25T14:46:14;37.70;1.00
5457;DHT22;2751;49.802;9.944;2023-05-25T14:48:42;37.40;1.00
5457;DHT22;2751;49.802;9.944;2023-05-25T14:51:09;37.60;1.00
5457;DHT22;2751;49.802;9.944;2023-05-25T14:53:36;36.20;1.00
5457;DHT22;2751;49.802;9.944;2023-05-25T14:56:03;36.50;1.00
5457;DHT22;2751;49.802;9.944;2023-05-25T14:58:31;38.00;1.00
5457;DHT22;2751;49.802;9.944;2023-05-25T15:00:59;39.30;1.00
5457;DHT22;2751;49.802;9.944;2023-05-25T15:03:26;39.50;1.00
5457;DHT22;2751;49.802;9.944;2023-05-25T15:05:54;39.70;1.00
5457;DHT22;2751;49.802;9.944;2023-05-25T15:08:22;39.40;1.00
5457;DHT22;2751;49.802;9.944;2023-05-25T15:10:49;39.80;1.00
5457;DHT22;2751;49.802;9.944;2023-05-25T15:13:16;39.50;1.00
5457;DHT22;2751;49.802;9.944;2023-05-25T15:15:43;39.80;1.00
5457;DHT22;2751;49.802;9.944;2023-05-25T15:18:10;39.40;1.00
5457;DHT22;2751;49.802;9.944;2023-05-25T15:20:36;38.30;1.00
5457;DHT22;2751;49.802;9.944;2023-05-25T15:23:05;38.20;1.00
5457;DHT22;2751;49.802;9.944;2023-05-25T15:25:32;38.90;1.00
5457;DHT22;2751;49.802;9.944;2023-05-25T15:27:58;38.20;1.00
5457;DHT22;2751;49.802;9.944;2023-05-25T15:30:26;37.90;1.00
5457;DHT22;2751;49.802;9.944;2023-05-25T15:32:52;38.00;1.00
5457;DHT22;2751;49.802;9.944;2023-05-25T15:35:19;37.70;1.00
5457;DHT22;2751;49.802;9.944;2023-05-25T15:37:46;37.20;1.00
5457;DHT22;2751;49.802;9.944;2023-05-25T15:40:15;37.50;1.00
5457;DHT22;2751;49.802;9.944;2023-05-25T15:42:42;36.20;1.00
5457;DHT22;2751;49.802;9.944;2023-05-25T15:45:09;35.70;1.00
5457;DHT22;2751;49.802;9.944;2023-05-25T15:47:37;34.90;1.00
5457;DHT22;2751;49.802;9.944;2023-05-25T15:50:04;35.70;1.00
5457;DHT22;2751;49.802;9.944;2023-05-25T15:52:32;36.80;1.00
5457;DHT22;2751;49.802;9.944;2023-05-25T15:54:58;37.60;1.00
5457;DHT22;2751;49.802;9.944;2023-05-25T15:57:26;37.00;1.00
5457;DHT22;2751;49.802;9.944;2023-05-25T15:59:53;36.60;1.00
5457;DHT22;2751;49.802;9.944;2023-05-25T16:02:20;35.50;1.00
5457;DHT22;2751;49.802;9.944;2023-05-25T16:04:47;34.00;1.00
5457;DHT22;2751;49.802;9.944;2023-05-25T16:07:14;33.90;1.00
5457;DHT22;2751;49.802;9.944;2023-05-25T16:09:41;34.50;1.00
5457;DHT22;2751;49.802;9.944;2023-05-25T16:12:08;35.60;1.00
5457;DHT22;2751;49.802;9.944;2023-05-25T16:14:36;35.10;1.00
5457;DHT22;2751;49.802;9.944;2023-05-25T16:17:03;35.40;1.00
5457;DHT22;2751;49.802;9.944;2023-05-25T16:19:30;35.50;1.00